Terminal Aerodrome Forecast
Issued by NWS

Home | Current Version | Previous Version | Graphics & Text | Print | Product List | Glossary On
Versions: 1 2 3 4 5 6 7 8 9 10 11 12 13 14 15 16 17
000
FTUS43 KABR 162000 AAB
TAFATY
TAF AMD
KATY 162050Z 1621/1718 19014G20KT P6SM FEW040
     FM170200 16007KT P6SM BKN040
     FM170500 VRB05KT P6SM OVC040=

USA.gov is the U.S. government's official web portal to all federal, state and local government web resources and services.